sensor_id;sensor_type;location;lat;lon;timestamp;temperature;humidity
37518;DHT22;23366;52.498;13.446;2023-05-07T00:01:23;9.00;99.90
37518;DHT22;23366;52.498;13.446;2023-05-07T00:03:48;9.10;99.90
37518;DHT22;23366;52.498;13.446;2023-05-07T00:06:14;9.00;99.90
37518;DHT22;23366;52.498;13.446;2023-05-07T00:08:40;9.00;99.90
37518;DHT22;23366;52.498;13.446;2023-05-07T00:11:05;9.10;99.90
37518;DHT22;23366;52.498;13.446;2023-05-07T00:13:31;9.00;99.90
37518;DHT22;23366;52.498;13.446;2023-05-07T00:16:01;9.00;99.90
37518;DHT22;23366;52.498;13.446;2023-05-07T00:18:27;9.00;99.90
37518;DHT22;23366;52.498;13.446;2023-05-07T00:20:53;9.10;99.90
37518;DHT22;23366;52.498;13.446;2023-05-07T00:23:18;9.00;99.90
37518;DHT22;23366;52.498;13.446;2023-05-07T00:25:44;9.00;99.90
37518;DHT22;23366;52.498;13.446;2023-05-07T00:28:09;9.00;99.90
37518;DHT22;23366;52.498;13.446;2023-05-07T00:30:35;9.00;99.90
37518;DHT22;23366;52.498;13.446;2023-05-07T00:33:00;9.00;99.90
37518;DHT22;23366;52.498;13.446;2023-05-07T00:35:26;9.00;99.90
37518;DHT22;23366;52.498;13.446;2023-05-07T00:37:51;9.00;99.90
37518;DHT22;23366;52.498;13.446;2023-05-07T00:40:17;9.00;99.90
37518;DHT22;23366;52.498;13.446;2023-05-07T00:42:42;9.00;99.90
37518;DHT22;23366;52.498;13.446;2023-05-07T00:45:15;9.00;99.90
37518;DHT22;23366;52.498;13.446;2023-05-07T00:47:41;8.90;99.90
37518;DHT22;23366;52.498;13.446;2023-05-07T00:50:07;8.90;99.90
37518;DHT22;23366;52.498;13.446;2023-05-07T00:52:33;8.90;99.90
37518;DHT22;23366;52.498;13.446;2023-05-07T00:55:02;8.80;99.90
37518;DHT22;23366;52.498;13.446;2023-05-07T00:57:33;8.90;99.90
37518;DHT22;23366;52.498;13.446;2023-05-07T01:00:01;8.90;99.90
37518;DHT22;23366;52.498;13.446;2023-05-07T01:02:27;8.80;99.90
37518;DHT22;23366;52.498;13.446;2023-05-07T01:04:52;8.90;99.90
37518;DHT22;23366;52.498;13.446;2023-05-07T01:07:18;8.80;99.90
37518;DHT22;23366;52.498;13.446;2023-05-07T01:09:43;8.90;99.90
37518;DHT22;23366;52.498;13.446;2023-05-07T01:12:10;8.90;99.90
37518;DHT22;23366;52.498;13.446;2023-05-07T01:14:36;8.90;99.90
37518;DHT22;23366;52.498;13.446;2023-05-07T01:17:01;8.90;99.90
37518;DHT22;23366;52.498;13.446;2023-05-07T01:19:28;8.90;99.90
37518;DHT22;23366;52.498;13.446;2023-05-07T01:22:01;8.90;99.90
37518;DHT22;23366;52.498;13.446;2023-05-07T01:24:28;8.90;99.90
37518;DHT22;23366;52.498;13.446;2023-05-07T01:26:53;8.90;99.90
37518;DHT22;23366;52.498;13.446;2023-05-07T01:29:18;8.90;99.90
37518;DHT22;23366;52.498;13.446;2023-05-07T01:31:44;8.90;99.90
37518;DHT22;23366;52.498;13.446;2023-05-07T01:34:11;8.90;99.90
37518;DHT22;23366;52.498;13.446;2023-05-07T01:36:38;8.80;99.90
37518;DHT22;23366;52.498;13.446;2023-05-07T01:39:05;8.90;99.90
37518;DHT22;23366;52.498;13.446;2023-05-07T01:41:31;8.90;99.90
37518;DHT22;23366;52.498;13.446;2023-05-07T01:43:58;8.90;99.90
37518;DHT22;23366;52.498;13.446;2023-05-07T01:46:24;8.90;99.90
37518;DHT22;23366;52.498;13.446;2023-05-07T01:48:51;9.00;99.90
37518;DHT22;23366;52.498;13.446;2023-05-07T01:51:16;8.90;99.90
37518;DHT22;23366;52.498;13.446;2023-05-07T01:53:42;8.90;99.90
37518;DHT22;23366;52.498;13.446;2023-05-07T01:56:09;8.90;99.90
37518;DHT22;23366;52.498;13.446;2023-05-07T01:58:34;8.90;99.90
37518;DHT22;23366;52.498;13.446;2023-05-07T02:01:00;8.90;99.90
37518;DHT22;23366;52.498;13.446;2023-05-07T02:03:25;8.90;99.90
37518;DHT22;23366;52.498;13.446;2023-05-07T02:05:51;8.90;99.90
37518;DHT22;23366;52.498;13.446;2023-05-07T02:08:16;8.90;99.90
37518;DHT22;23366;52.498;13.446;2023-05-07T02:10:41;8.90;99.90
37518;DHT22;23366;52.498;13.446;2023-05-07T02:13:07;8.90;99.90
37518;DHT22;23366;52.498;13.446;2023-05-07T02:15:32;8.90;99.90
37518;DHT22;23366;52.498;13.446;2023-05-07T02:18:03;8.90;99.90
37518;DHT22;23366;52.498;13.446;2023-05-07T02:20:29;8.90;99.90
37518;DHT22;23366;52.498;13.446;2023-05-07T02:22:54;8.90;99.90
37518;DHT22;23366;52.498;13.446;2023-05-07T02:25:20;8.90;99.90
37518;DHT22;23366;52.498;13.446;2023-05-07T02:27:45;8.90;99.90
37518;DHT22;23366;52.498;13.446;2023-05-07T02:30:11;8.90;99.90
37518;DHT22;23366;52.498;13.446;2023-05-07T02:32:37;8.90;99.90
37518;DHT22;23366;52.498;13.446;2023-05-07T02:35:02;8.90;99.90
37518;DHT22;23366;52.498;13.446;2023-05-07T02:37:28;8.90;99.90
37518;DHT22;23366;52.498;13.446;2023-05-07T02:39:53;8.90;99.90
37518;DHT22;23366;52.498;13.446;2023-05-07T02:42:19;8.90;99.90
37518;DHT22;23366;52.498;13.446;2023-05-07T02:44:44;8.90;99.90
37518;DHT22;23366;52.498;13.446;2023-05-07T02:47:09;8.90;99.90
37518;DHT22;23366;52.498;13.446;2023-05-07T02:49:35;8.90;99.90
37518;DHT22;23366;52.498;13.446;2023-05-07T02:52:01;8.90;99.90
37518;DHT22;23366;52.498;13.446;2023-05-07T02:54:26;8.90;99.90
37518;DHT22;23366;52.498;13.446;2023-05-07T02:56:52;8.90;99.90
37518;DHT22;23366;52.498;13.446;2023-05-07T02:59:17;9.00;99.90
37518;DHT22;23366;52.498;13.446;2023-05-07T03:01:42;8.90;99.90
37518;DHT22;23366;52.498;13.446;2023-05-07T03:04:10;8.90;99.90
37518;DHT22;23366;52.498;13.446;2023-05-07T03:06:36;8.90;99.90
37518;DHT22;23366;52.498;13.446;2023-05-07T03:09:01;8.90;99.90
37518;DHT22;23366;52.498;13.446;2023-05-07T03:11:27;8.90;99.90
37518;DHT22;23366;52.498;13.446;2023-05-07T03:13:52;9.00;99.90
37518;DHT22;23366;52.498;13.446;2023-05-07T03:16:18;8.90;99.90
37518;DHT22;23366;52.498;13.446;2023-05-07T03:18:43;8.90;99.90
37518;DHT22;23366;52.498;13.446;2023-05-07T03:21:09;8.90;99.90
37518;DHT22;23366;52.498;13.446;2023-05-07T03:23:34;8.90;99.90
37518;DHT22;23366;52.498;13.446;2023-05-07T03:26:00;8.90;99.90
37518;DHT22;23366;52.498;13.446;2023-05-07T03:28:25;8.90;99.90
37518;DHT22;23366;52.498;13.446;2023-05-07T03:30:51;8.90;99.90
37518;DHT22;23366;52.498;13.446;2023-05-07T03:33:16;8.90;99.90
37518;DHT22;23366;52.498;13.446;2023-05-07T03:35:42;8.90;99.90
37518;DHT22;23366;52.498;13.446;2023-05-07T03:38:07;9.00;99.90
37518;DHT22;23366;52.498;13.446;2023-05-07T03:40:32;8.90;99.90
37518;DHT22;23366;52.498;13.446;2023-05-07T03:42:59;8.90;99.90
37518;DHT22;23366;52.498;13.446;2023-05-07T03:45:25;8.90;99.90
37518;DHT22;23366;52.498;13.446;2023-05-07T03:47:51;8.80;99.90
37518;DHT22;23366;52.498;13.446;2023-05-07T03:50:16;8.80;99.90
37518;DHT22;23366;52.498;13.446;2023-05-07T03:52:42;8.80;99.90
37518;DHT22;23366;52.498;13.446;2023-05-07T03:55:08;8.80;99.90
37518;DHT22;23366;52.498;13.446;2023-05-07T03:57:33;8.90;99.90
37518;DHT22;23366;52.498;13.446;2023-05-07T03:59:59;8.80;99.90
37518;DHT22;23366;52.498;13.446;2023-05-07T04:02:24;8.80;99.90
37518;DHT22;23366;52.498;13.446;2023-05-07T04:04:50;8.80;99.90
37518;DHT22;23366;52.498;13.446;2023-05-07T04:07:15;8.80;99.90
37518;DHT22;23366;52.498;13.446;2023-05-07T04:09:41;8.80;99.90
37518;DHT22;23366;52.498;13.446;2023-05-07T04:12:06;8.80;99.90
37518;DHT22;23366;52.498;13.446;2023-05-07T04:14:32;8.80;99.90
37518;DHT22;23366;52.498;13.446;2023-05-07T04:16:58;8.80;99.90
37518;DHT22;23366;52.498;13.446;2023-05-07T04:19:24;8.70;99.90
37518;DHT22;23366;52.498;13.446;2023-05-07T04:21:50;8.80;99.90
37518;DHT22;23366;52.498;13.446;2023-05-07T04:24:15;8.80;99.90
37518;DHT22;23366;52.498;13.446;2023-05-07T04:26:41;8.90;99.90
37518;DHT22;23366;52.498;13.446;2023-05-07T04:29:06;8.80;99.90
37518;DHT22;23366;52.498;13.446;2023-05-07T04:31:32;8.80;99.90
37518;DHT22;23366;52.498;13.446;2023-05-07T04:33:57;8.80;99.90
37518;DHT22;23366;52.498;13.446;2023-05-07T04:36:23;8.80;99.90
37518;DHT22;23366;52.498;13.446;2023-05-07T04:38:53;8.80;99.90
37518;DHT22;23366;52.498;13.446;2023-05-07T04:41:18;8.80;99.90
37518;DHT22;23366;52.498;13.446;2023-05-07T04:43:44;8.80;99.90
37518;DHT22;23366;52.498;13.446;2023-05-07T04:46:09;8.90;99.90
37518;DHT22;23366;52.498;13.446;2023-05-07T04:48:35;8.90;99.90
37518;DHT22;23366;52.498;13.446;2023-05-07T04:51:00;8.90;99.90
37518;DHT22;23366;52.498;13.446;2023-05-07T04:53:26;8.90;99.90
37518;DHT22;23366;52.498;13.446;2023-05-07T04:55:58;9.00;99.90
37518;DHT22;23366;52.498;13.446;2023-05-07T04:58:23;9.00;99.90
37518;DHT22;23366;52.498;13.446;2023-05-07T05:00:49;9.10;99.90
37518;DHT22;23366;52.498;13.446;2023-05-07T05:03:15;9.10;99.90
37518;DHT22;23366;52.498;13.446;2023-05-07T05:05:40;9.20;99.90
37518;DHT22;23366;52.498;13.446;2023-05-07T05:08:06;9.20;99.90
37518;DHT22;23366;52.498;13.446;2023-05-07T05:10:31;9.30;99.90
37518;DHT22;23366;52.498;13.446;2023-05-07T05:12:57;9.50;99.90
37518;DHT22;23366;52.498;13.446;2023-05-07T05:15:22;9.50;99.90
37518;DHT22;23366;52.498;13.446;2023-05-07T05:17:48;9.50;99.90
37518;DHT22;23366;52.498;13.446;2023-05-07T05:20:13;9.40;99.90
37518;DHT22;23366;52.498;13.446;2023-05-07T05:22:40;9.40;99.90
37518;DHT22;23366;52.498;13.446;2023-05-07T05:25:06;9.50;99.90
37518;DHT22;23366;52.498;13.446;2023-05-07T05:27:32;9.50;99.90
37518;DHT22;23366;52.498;13.446;2023-05-07T05:29:57;9.50;99.90
37518;DHT22;23366;52.498;13.446;2023-05-07T05:32:23;9.60;99.90
37518;DHT22;23366;52.498;13.446;2023-05-07T05:34:48;9.70;99.90
37518;DHT22;23366;52.498;13.446;2023-05-07T05:37:14;9.80;99.90
37518;DHT22;23366;52.498;13.446;2023-05-07T05:39:39;9.90;99.90
37518;DHT22;23366;52.498;13.446;2023-05-07T05:42:05;10.00;99.90
37518;DHT22;23366;52.498;13.446;2023-05-07T05:44:30;9.90;99.90
37518;DHT22;23366;52.498;13.446;2023-05-07T05:46:56;9.70;99.90
37518;DHT22;23366;52.498;13.446;2023-05-07T05:49:23;9.70;99.90
37518;DHT22;23366;52.498;13.446;2023-05-07T05:51:48;9.90;99.90
37518;DHT22;23366;52.498;13.446;2023-05-07T05:54:14;10.10;99.90
37518;DHT22;23366;52.498;13.446;2023-05-07T05:56:40;10.30;99.90
37518;DHT22;23366;52.498;13.446;2023-05-07T05:59:05;10.40;99.90
37518;DHT22;23366;52.498;13.446;2023-05-07T06:01:31;10.60;99.90
37518;DHT22;23366;52.498;13.446;2023-05-07T06:03:57;10.80;99.90
37518;DHT22;23366;52.498;13.446;2023-05-07T06:06:23;10.80;99.90
37518;DHT22;23366;52.498;13.446;2023-05-07T06:08:49;10.80;99.90
37518;DHT22;23366;52.498;13.446;2023-05-07T06:11:14;10.90;99.90
37518;DHT22;23366;52.498;13.446;2023-05-07T06:13:40;10.90;99.90
37518;DHT22;23366;52.498;13.446;2023-05-07T06:16:06;10.90;99.90
37518;DHT22;23366;52.498;13.446;2023-05-07T06:18:31;11.00;99.90
37518;DHT22;23366;52.498;13.446;2023-05-07T06:20:57;10.90;99.90
37518;DHT22;23366;52.498;13.446;2023-05-07T06:23:22;10.90;99.90
37518;DHT22;23366;52.498;13.446;2023-05-07T06:25:49;10.70;99.90
37518;DHT22;23366;52.498;13.446;2023-05-07T06:28:15;10.50;99.90
37518;DHT22;23366;52.498;13.446;2023-05-07T06:30:41;10.30;99.90
37518;DHT22;23366;52.498;13.446;2023-05-07T06:33:06;10.30;99.90
37518;DHT22;23366;52.498;13.446;2023-05-07T06:35:32;10.30;99.90
37518;DHT22;23366;52.498;13.446;2023-05-07T06:37:57;10.40;99.90
37518;DHT22;23366;52.498;13.446;2023-05-07T06:40:22;10.30;99.90
37518;DHT22;23366;52.498;13.446;2023-05-07T06:42:48;10.40;99.90
37518;DHT22;23366;52.498;13.446;2023-05-07T06:45:13;10.40;99.90
37518;DHT22;23366;52.498;13.446;2023-05-07T06:47:39;10.60;99.90
37518;DHT22;23366;52.498;13.446;2023-05-07T06:50:05;10.70;99.90
37518;DHT22;23366;52.498;13.446;2023-05-07T06:52:31;10.80;99.90
37518;DHT22;23366;52.498;13.446;2023-05-07T06:54:56;10.90;99.90
37518;DHT22;23366;52.498;13.446;2023-05-07T06:57:22;11.10;99.90
37518;DHT22;23366;52.498;13.446;2023-05-07T06:59:47;11.50;99.90
37518;DHT22;23366;52.498;13.446;2023-05-07T07:02:12;12.00;99.90
37518;DHT22;23366;52.498;13.446;2023-05-07T07:04:38;12.80;99.90
37518;DHT22;23366;52.498;13.446;2023-05-07T07:07:03;13.40;99.90
37518;DHT22;23366;52.498;13.446;2023-05-07T07:09:29;13.60;99.90
37518;DHT22;23366;52.498;13.446;2023-05-07T07:11:54;13.80;99.90
37518;DHT22;23366;52.498;13.446;2023-05-07T07:14:20;14.10;99.90
37518;DHT22;23366;52.498;13.446;2023-05-07T07:16:45;14.00;99.90
37518;DHT22;23366;52.498;13.446;2023-05-07T07:19:12;14.60;99.90
37518;DHT22;23366;52.498;13.446;2023-05-07T07:21:37;15.70;99.90
37518;DHT22;23366;52.498;13.446;2023-05-07T07:24:03;16.50;99.90
37518;DHT22;23366;52.498;13.446;2023-05-07T07:26:29;17.80;99.60
37518;DHT22;23366;52.498;13.446;2023-05-07T07:28:54;19.40;96.10
37518;DHT22;23366;52.498;13.446;2023-05-07T07:31:22;20.20;92.40
37518;DHT22;23366;52.498;13.446;2023-05-07T07:33:48;20.60;90.30
37518;DHT22;23366;52.498;13.446;2023-05-07T07:36:15;21.80;88.50
37518;DHT22;23366;52.498;13.446;2023-05-07T07:38:40;22.60;83.10
37518;DHT22;23366;52.498;13.446;2023-05-07T07:41:08;23.70;77.40
37518;DHT22;23366;52.498;13.446;2023-05-07T07:43:34;24.60;72.10
37518;DHT22;23366;52.498;13.446;2023-05-07T07:46:00;24.10;69.00
37518;DHT22;23366;52.498;13.446;2023-05-07T07:48:26;24.60;69.30
37518;DHT22;23366;52.498;13.446;2023-05-07T07:50:52;25.50;67.50
37518;DHT22;23366;52.498;13.446;2023-05-07T07:53:17;25.60;63.00
37518;DHT22;23366;52.498;13.446;2023-05-07T07:55:43;25.00;63.00
37518;DHT22;23366;52.498;13.446;2023-05-07T07:58:09;25.70;61.70
37518;DHT22;23366;52.498;13.446;2023-05-07T08:00:35;25.90;59.40
37518;DHT22;23366;52.498;13.446;2023-05-07T08:03:01;25.70;60.10
37518;DHT22;23366;52.498;13.446;2023-05-07T08:05:28;26.70;60.60
37518;DHT22;23366;52.498;13.446;2023-05-07T08:07:54;27.20;58.50
37518;DHT22;23366;52.498;13.446;2023-05-07T08:10:19;27.10;57.80
37518;DHT22;23366;52.498;13.446;2023-05-07T08:12:51;26.20;57.00
37518;DHT22;23366;52.498;13.446;2023-05-07T08:15:17;25.80;60.90
37518;DHT22;23366;52.498;13.446;2023-05-07T08:17:43;25.00;58.10
37518;DHT22;23366;52.498;13.446;2023-05-07T08:20:09;23.70;60.00
37518;DHT22;23366;52.498;13.446;2023-05-07T08:22:35;22.30;62.70
37518;DHT22;23366;52.498;13.446;2023-05-07T08:25:01;21.90;65.20
37518;DHT22;23366;52.498;13.446;2023-05-07T08:27:27;21.30;66.10
37518;DHT22;23366;52.498;13.446;2023-05-07T08:29:53;21.10;68.60
37518;DHT22;23366;52.498;13.446;2023-05-07T08:32:18;21.10;67.30
37518;DHT22;23366;52.498;13.446;2023-05-07T08:34:44;20.20;68.70
37518;DHT22;23366;52.498;13.446;2023-05-07T08:37:10;20.30;70.30
37518;DHT22;23366;52.498;13.446;2023-05-07T08:39:35;20.90;69.30
37518;DHT22;23366;52.498;13.446;2023-05-07T08:42:01;21.70;68.40
37518;DHT22;23366;52.498;13.446;2023-05-07T08:44:33;22.20;65.70
37518;DHT22;23366;52.498;13.446;2023-05-07T08:47:01;22.60;65.20
37518;DHT22;23366;52.498;13.446;2023-05-07T08:49:27;22.30;64.50
37518;DHT22;23366;52.498;13.446;2023-05-07T08:51:53;21.80;67.10
37518;DHT22;23366;52.498;13.446;2023-05-07T08:54:18;21.70;67.40
37518;DHT22;23366;52.498;13.446;2023-05-07T08:57:07;22.00;66.50
37518;DHT22;23366;52.498;13.446;2023-05-07T08:59:36;21.90;65.10
37518;DHT22;23366;52.498;13.446;2023-05-07T09:02:02;21.00;67.80
37518;DHT22;23366;52.498;13.446;2023-05-07T09:04:27;20.30;69.00
37518;DHT22;23366;52.498;13.446;2023-05-07T09:06:53;20.20;70.20
37518;DHT22;23366;52.498;13.446;2023-05-07T09:09:18;20.50;70.10
37518;DHT22;23366;52.498;13.446;2023-05-07T09:11:44;20.50;70.00
37518;DHT22;23366;52.498;13.446;2023-05-07T09:14:09;19.80;71.40
37518;DHT22;23366;52.498;13.446;2023-05-07T09:16:35;19.00;74.50
37518;DHT22;23366;52.498;13.446;2023-05-07T09:19:00;19.00;74.50
37518;DHT22;23366;52.498;13.446;2023-05-07T09:21:26;19.30;73.50
37518;DHT22;23366;52.498;13.446;2023-05-07T09:23:53;19.10;73.50
37518;DHT22;23366;52.498;13.446;2023-05-07T09:26:23;18.80;74.20
37518;DHT22;23366;52.498;13.446;2023-05-07T09:28:48;18.90;75.30
37518;DHT22;23366;52.498;13.446;2023-05-07T09:31:14;18.60;76.00
37518;DHT22;23366;52.498;13.446;2023-05-07T09:33:40;18.30;76.10
37518;DHT22;23366;52.498;13.446;2023-05-07T09:36:07;17.60;78.40
37518;DHT22;23366;52.498;13.446;2023-05-07T09:38:33;17.10;80.10
37518;DHT22;23366;52.498;13.446;2023-05-07T09:41:10;17.00;81.20
37518;DHT22;23366;52.498;13.446;2023-05-07T09:43:38;16.50;82.90
37518;DHT22;23366;52.498;13.446;2023-05-07T09:46:07;16.30;83.40
37518;DHT22;23366;52.498;13.446;2023-05-07T09:48:38;15.90;85.60
37518;DHT22;23366;52.498;13.446;2023-05-07T09:51:33;15.50;86.60
37518;DHT22;23366;52.498;13.446;2023-05-07T09:53:56;15.40;87.20
37518;DHT22;23366;52.498;13.446;2023-05-07T09:56:22;15.30;88.30
37518;DHT22;23366;52.498;13.446;2023-05-07T09:58:49;15.20;88.50
37518;DHT22;23366;52.498;13.446;2023-05-07T10:01:17;15.00;89.70
37518;DHT22;23366;52.498;13.446;2023-05-07T10:03:48;15.00;90.10
37518;DHT22;23366;52.498;13.446;2023-05-07T10:06:15;15.00;89.80
37518;DHT22;23366;52.498;13.446;2023-05-07T10:08:44;15.00;90.00
37518;DHT22;23366;52.498;13.446;2023-05-07T10:11:09;14.70;89.60
37518;DHT22;23366;52.498;13.446;2023-05-07T10:13:38;14.80;90.60
37518;DHT22;23366;52.498;13.446;2023-05-07T10:16:04;14.60;90.50
37518;DHT22;23366;52.498;13.446;2023-05-07T10:18:31;14.80;91.20
37518;DHT22;23366;52.498;13.446;2023-05-07T10:21:17;15.10;90.80
37518;DHT22;23366;52.498;13.446;2023-05-07T10:23:50;15.30;90.60
37518;DHT22;23366;52.498;13.446;2023-05-07T10:26:17;15.30;90.60
37518;DHT22;23366;52.498;13.446;2023-05-07T10:28:45;15.10;90.30
37518;DHT22;23366;52.498;13.446;2023-05-07T10:31:52;15.20;90.40
37518;DHT22;23366;52.498;13.446;2023-05-07T10:34:36;15.40;90.70
37518;DHT22;23366;52.498;13.446;2023-05-07T10:37:03;15.60;89.30
37518;DHT22;23366;52.498;13.446;2023-05-07T10:39:29;15.50;89.40
37518;DHT22;23366;52.498;13.446;2023-05-07T10:41:55;15.30;90.60
37518;DHT22;23366;52.498;13.446;2023-05-07T10:44:28;15.20;90.40
37518;DHT22;23366;52.498;13.446;2023-05-07T10:47:16;15.30;91.00
37518;DHT22;23366;52.498;13.446;2023-05-07T10:52:20;15.70;90.20
37518;DHT22;23366;52.498;13.446;2023-05-07T10:54:46;15.70;89.70
37518;DHT22;23366;52.498;13.446;2023-05-07T10:59:56;15.80;88.90
37518;DHT22;23366;52.498;13.446;2023-05-07T11:02:21;15.60;88.60
37518;DHT22;23366;52.498;13.446;2023-05-07T11:05:20;15.50;90.50
37518;DHT22;23366;52.498;13.446;2023-05-07T11:08:03;15.50;89.90
37518;DHT22;23366;52.498;13.446;2023-05-07T11:10:52;15.60;90.20
37518;DHT22;23366;52.498;13.446;2023-05-07T11:13:19;15.90;89.20
37518;DHT22;23366;52.498;13.446;2023-05-07T11:16:04;15.90;87.70
37518;DHT22;23366;52.498;13.446;2023-05-07T11:18:49;15.90;89.40
37518;DHT22;23366;52.498;13.446;2023-05-07T11:21:38;15.70;88.10
37518;DHT22;23366;52.498;13.446;2023-05-07T11:24:09;15.50;89.00
37518;DHT22;23366;52.498;13.446;2023-05-07T11:26:48;15.40;88.60
37518;DHT22;23366;52.498;13.446;2023-05-07T11:29:19;15.20;90.60
37518;DHT22;23366;52.498;13.446;2023-05-07T11:31:52;15.20;90.50
37518;DHT22;23366;52.498;13.446;2023-05-07T11:34:23;15.20;90.40
37518;DHT22;23366;52.498;13.446;2023-05-07T11:36:49;15.10;90.00
37518;DHT22;23366;52.498;13.446;2023-05-07T11:41:54;15.30;90.30
37518;DHT22;23366;52.498;13.446;2023-05-07T11:44:19;15.40;90.80
37518;DHT22;23366;52.498;13.446;2023-05-07T11:46:45;15.20;90.50
37518;DHT22;23366;52.498;13.446;2023-05-07T11:49:11;15.00;90.80
37518;DHT22;23366;52.498;13.446;2023-05-07T11:51:36;15.10;91.30
37518;DHT22;23366;52.498;13.446;2023-05-07T11:54:04;15.20;90.90
37518;DHT22;23366;52.498;13.446;2023-05-07T11:56:34;15.30;90.80
37518;DHT22;23366;52.498;13.446;2023-05-07T11:59:00;15.20;91.00
37518;DHT22;23366;52.498;13.446;2023-05-07T12:01:26;15.10;90.60
37518;DHT22;23366;52.498;13.446;2023-05-07T12:03:52;15.00;91.00
37518;DHT22;23366;52.498;13.446;2023-05-07T12:06:18;15.00;91.20
37518;DHT22;23366;52.498;13.446;2023-05-07T12:08:45;15.20;90.90
37518;DHT22;23366;52.498;13.446;2023-05-07T12:11:14;15.40;91.10
37518;DHT22;23366;52.498;13.446;2023-05-07T12:13:41;15.40;90.20
37518;DHT22;23366;52.498;13.446;2023-05-07T12:16:07;15.50;90.30
37518;DHT22;23366;52.498;13.446;2023-05-07T12:18:33;15.60;89.20
37518;DHT22;23366;52.498;13.446;2023-05-07T12:20:59;15.50;87.80
37518;DHT22;23366;52.498;13.446;2023-05-07T12:23:25;15.70;89.00
37518;DHT22;23366;52.498;13.446;2023-05-07T12:25:51;15.90;89.00
37518;DHT22;23366;52.498;13.446;2023-05-07T12:28:17;16.00;89.00
37518;DHT22;23366;52.498;13.446;2023-05-07T12:30:44;16.00;88.50
37518;DHT22;23366;52.498;13.446;2023-05-07T12:33:11;15.80;89.50
37518;DHT22;23366;52.498;13.446;2023-05-07T12:35:38;15.60;89.50
37518;DHT22;23366;52.498;13.446;2023-05-07T12:38:17;15.50;89.90
37518;DHT22;23366;52.498;13.446;2023-05-07T12:40:47;15.40;90.00
37518;DHT22;23366;52.498;13.446;2023-05-07T12:43:20;15.30;90.40
37518;DHT22;23366;52.498;13.446;2023-05-07T12:45:48;15.40;90.00
37518;DHT22;23366;52.498;13.446;2023-05-07T12:48:20;15.40;90.10
37518;DHT22;23366;52.498;13.446;2023-05-07T12:50:59;15.40;89.50
37518;DHT22;23366;52.498;13.446;2023-05-07T12:53:29;15.40;89.00
37518;DHT22;23366;52.498;13.446;2023-05-07T12:56:01;15.50;89.60
37518;DHT22;23366;52.498;13.446;2023-05-07T12:58:28;15.60;88.50
37518;DHT22;23366;52.498;13.446;2023-05-07T13:00:55;15.50;88.20
37518;DHT22;23366;52.498;13.446;2023-05-07T13:03:37;15.50;87.60
37518;DHT22;23366;52.498;13.446;2023-05-07T13:06:08;15.50;87.60
37518;DHT22;23366;52.498;13.446;2023-05-07T13:08:40;15.50;86.50
37518;DHT22;23366;52.498;13.446;2023-05-07T13:11:09;15.60;86.90
37518;DHT22;23366;52.498;13.446;2023-05-07T13:13:36;15.60;86.20
37518;DHT22;23366;52.498;13.446;2023-05-07T13:16:03;15.60;86.10
37518;DHT22;23366;52.498;13.446;2023-05-07T13:18:30;15.70;85.40
37518;DHT22;23366;52.498;13.446;2023-05-07T13:20:56;15.70;86.10
37518;DHT22;23366;52.498;13.446;2023-05-07T13:23:22;15.90;85.80
37518;DHT22;23366;52.498;13.446;2023-05-07T13:25:48;15.90;86.10
37518;DHT22;23366;52.498;13.446;2023-05-07T13:28:14;16.00;86.00
37518;DHT22;23366;52.498;13.446;2023-05-07T13:30:39;16.10;85.90
37518;DHT22;23366;52.498;13.446;2023-05-07T13:33:06;16.20;85.90
37518;DHT22;23366;52.498;13.446;2023-05-07T13:35:31;16.30;86.00
37518;DHT22;23366;52.498;13.446;2023-05-07T13:37:57;16.50;84.60
37518;DHT22;23366;52.498;13.446;2023-05-07T13:40:22;16.40;85.10
37518;DHT22;23366;52.498;13.446;2023-05-07T13:42:48;16.50;86.70
37518;DHT22;23366;52.498;13.446;2023-05-07T13:45:14;16.40;85.40
37518;DHT22;23366;52.498;13.446;2023-05-07T13:47:41;16.30;85.70
37518;DHT22;23366;52.498;13.446;2023-05-07T13:50:08;16.40;85.80
37518;DHT22;23366;52.498;13.446;2023-05-07T13:52:34;16.50;85.80
37518;DHT22;23366;52.498;13.446;2023-05-07T13:54:59;16.50;85.10
37518;DHT22;23366;52.498;13.446;2023-05-07T13:57:25;16.50;84.30
37518;DHT22;23366;52.498;13.446;2023-05-07T13:59:50;16.70;85.80
37518;DHT22;23366;52.498;13.446;2023-05-07T14:02:16;16.80;83.60
37518;DHT22;23366;52.498;13.446;2023-05-07T14:04:41;16.70;83.40
37518;DHT22;23366;52.498;13.446;2023-05-07T14:07:07;16.40;84.10
37518;DHT22;23366;52.498;13.446;2023-05-07T14:09:32;16.30;85.20
37518;DHT22;23366;52.498;13.446;2023-05-07T14:11:58;16.10;85.20
37518;DHT22;23366;52.498;13.446;2023-05-07T14:14:24;15.90;85.20
37518;DHT22;23366;52.498;13.446;2023-05-07T14:16:49;15.90;85.90
37518;DHT22;23366;52.498;13.446;2023-05-07T14:19:15;16.00;87.00
37518;DHT22;23366;52.498;13.446;2023-05-07T14:21:41;16.00;86.70
37518;DHT22;23366;52.498;13.446;2023-05-07T14:24:08;16.00;86.10
37518;DHT22;23366;52.498;13.446;2023-05-07T14:26:35;15.90;86.70
37518;DHT22;23366;52.498;13.446;2023-05-07T14:29:00;15.80;86.00
37518;DHT22;23366;52.498;13.446;2023-05-07T14:31:26;15.70;87.60
37518;DHT22;23366;52.498;13.446;2023-05-07T14:33:51;15.80;87.00
37518;DHT22;23366;52.498;13.446;2023-05-07T14:36:18;15.80;86.30
37518;DHT22;23366;52.498;13.446;2023-05-07T14:38:45;15.70;85.00
37518;DHT22;23366;52.498;13.446;2023-05-07T14:41:11;15.50;85.60
37518;DHT22;23366;52.498;13.446;2023-05-07T14:43:36;15.50;86.60
37518;DHT22;23366;52.498;13.446;2023-05-07T14:46:02;15.50;85.60
37518;DHT22;23366;52.498;13.446;2023-05-07T14:48:37;15.30;86.80
37518;DHT22;23366;52.498;13.446;2023-05-07T14:51:13;15.30;87.40
37518;DHT22;23366;52.498;13.446;2023-05-07T14:53:41;15.30;87.20
37518;DHT22;23366;52.498;13.446;2023-05-07T14:56:06;15.40;88.10
37518;DHT22;23366;52.498;13.446;2023-05-07T14:58:33;15.50;88.60
37518;DHT22;23366;52.498;13.446;2023-05-07T15:00:59;15.50;88.10
37518;DHT22;23366;52.498;13.446;2023-05-07T15:03:24;15.60;88.70
37518;DHT22;23366;52.498;13.446;2023-05-07T15:05:51;15.60;88.50
37518;DHT22;23366;52.498;13.446;2023-05-07T15:08:17;15.70;86.70
37518;DHT22;23366;52.498;13.446;2023-05-07T15:10:42;15.80;87.40
37518;DHT22;23366;52.498;13.446;2023-05-07T15:13:09;15.80;87.20
37518;DHT22;23366;52.498;13.446;2023-05-07T15:15:35;15.80;86.50
37518;DHT22;23366;52.498;13.446;2023-05-07T15:18:01;15.80;86.50
37518;DHT22;23366;52.498;13.446;2023-05-07T15:20:27;15.70;87.20
37518;DHT22;23366;52.498;13.446;2023-05-07T15:22:54;15.70;87.40
37518;DHT22;23366;52.498;13.446;2023-05-07T15:25:20;15.60;87.50
37518;DHT22;23366;52.498;13.446;2023-05-07T15:27:46;15.50;88.70
37518;DHT22;23366;52.498;13.446;2023-05-07T15:30:12;15.50;88.40